createdAt,value
2018-02-27T00:00:11.035Z,0.00
2018-02-27T00:01:11.043Z,0.00
2018-02-27T00:02:11.049Z,0.00
2018-02-27T00:03:11.058Z,0.00
2018-02-27T00:04:11.063Z,0.00
2018-02-27T00:05:11.070Z,0.00
2018-02-27T00:06:11.073Z,0.00
2018-02-27T00:07:11.082Z,0.00
2018-02-27T00:08:11.088Z,0.00
2018-02-27T00:09:11.096Z,0.00
2018-02-27T00:10:11.101Z,0.00
2018-02-27T00:11:11.108Z,0.00
2018-02-27T00:12:11.118Z,0.00
2018-02-27T00:13:11.121Z,0.00
2018-02-27T00:14:11.128Z,0.00
2018-02-27T00:15:11.141Z,0.00
2018-02-27T00:16:11.141Z,0.00
2018-02-27T00:17:11.149Z,0.00
2018-02-27T00:18:11.155Z,0.00
2018-02-27T00:19:11.165Z,0.00
2018-02-27T00:20:11.169Z,0.00
2018-02-27T00:21:11.174Z,0.00
2018-02-27T00:22:11.182Z,0.00
2018-02-27T00:23:11.187Z,0.00
2018-02-27T00:24:11.194Z,0.00
2018-02-27T00:25:11.201Z,0.00
2018-02-27T00:26:11.207Z,0.00
2018-02-27T00:27:11.217Z,0.00
2018-02-27T00:28:11.221Z,0.00
2018-02-27T00:29:11.238Z,0.00
2018-02-27T00:30:11.233Z,0.00
2018-02-27T00:31:11.241Z,0.00
2018-02-27T00:32:11.250Z,0.00
2018-02-27T00:33:11.254Z,0.00
2018-02-27T00:34:11.262Z,0.00
2018-02-27T00:35:11.268Z,0.00
2018-02-27T00:36:11.276Z,0.00
2018-02-27T00:37:11.281Z,0.00
2018-02-27T00:38:11.287Z,0.00
2018-02-27T00:39:11.297Z,0.00
2018-02-27T00:40:11.302Z,0.00
2018-02-27T00:41:11.308Z,0.00
2018-02-27T00:42:11.313Z,0.00
2018-02-27T00:43:11.321Z,0.00
2018-02-27T00:44:11.328Z,0.00
2018-02-27T00:45:11.336Z,0.00
2018-02-27T00:46:11.343Z,0.00
2018-02-27T00:47:11.348Z,0.00
2018-02-27T00:48:11.362Z,0.00
2018-02-27T00:49:11.361Z,0.00
2018-02-27T00:50:11.370Z,0.00
2018-02-27T00:51:11.375Z,0.00
2018-02-27T00:52:11.382Z,0.00
2018-02-27T00:53:11.389Z,0.00
2018-02-27T00:54:11.398Z,0.00
2018-02-27T00:55:11.402Z,0.00
2018-02-27T00:56:11.407Z,0.00
2018-02-27T00:57:11.414Z,0.00
2018-02-27T00:58:11.423Z,0.00
2018-02-27T00:59:11.428Z,0.00
2018-02-27T01:00:11.438Z,0.00
2018-02-27T01:01:11.441Z,0.00
2018-02-27T01:02:11.447Z,0.00
2018-02-27T01:03:11.453Z,0.00
2018-02-27T01:04:11.461Z,0.00
2018-02-27T01:05:11.466Z,0.00
2018-02-27T01:06:11.473Z,0.00
2018-02-27T01:07:11.480Z,0.00
2018-02-27T01:08:11.488Z,0.00
2018-02-27T01:09:11.494Z,0.00
2018-02-27T01:10:11.501Z,0.00
2018-02-27T01:11:11.507Z,0.00
2018-02-27T01:12:11.514Z,0.00
2018-02-27T01:13:11.523Z,0.00
2018-02-27T01:14:11.528Z,0.00
2018-02-27T01:15:11.534Z,0.00
2018-02-27T01:16:11.540Z,0.00
2018-02-27T01:17:11.550Z,0.00
2018-02-27T01:18:11.560Z,0.00
2018-02-27T01:19:11.560Z,0.00
2018-02-27T01:20:11.567Z,0.00
2018-02-27T01:21:11.574Z,0.00
2018-02-27T01:22:11.579Z,0.00
2018-02-27T01:23:11.586Z,0.00
2018-02-27T01:24:11.593Z,0.00
2018-02-27T01:25:11.601Z,0.00
2018-02-27T01:26:11.605Z,0.00
2018-02-27T01:27:11.612Z,0.00
2018-02-27T01:28:11.621Z,0.00
2018-02-27T01:29:11.627Z,0.00
2018-02-27T01:30:11.634Z,0.00
2018-02-27T01:31:11.659Z,0.00
2018-02-27T01:32:11.646Z,0.00
2018-02-27T01:33:11.653Z,0.00
2018-02-27T01:34:11.665Z,0.00
2018-02-27T01:35:11.667Z,0.00
2018-02-27T01:36:11.674Z,0.00
2018-02-27T01:37:11.681Z,0.00
2018-02-27T01:38:11.686Z,0.00
2018-02-27T01:39:11.693Z,0.00
2018-02-27T01:40:11.701Z,0.00
2018-02-27T01:41:11.707Z,0.00
2018-02-27T01:42:11.716Z,0.00
2018-02-27T01:43:11.719Z,0.00
2018-02-27T01:44:11.730Z,0.00
2018-02-27T01:45:11.735Z,0.00
2018-02-27T01:46:11.739Z,0.00
2018-02-27T01:47:11.745Z,0.00
2018-02-27T01:48:11.753Z,0.00
2018-02-27T01:49:11.760Z,0.00
2018-02-27T01:50:11.770Z,0.00
2018-02-27T01:51:11.772Z,0.00
2018-02-27T01:52:11.779Z,0.00
2018-02-27T01:53:11.787Z,0.00
2018-02-27T01:54:11.792Z,0.00
2018-02-27T01:55:11.799Z,0.00
2018-02-27T01:56:11.806Z,0.00
2018-02-27T01:57:11.812Z,0.00
2018-02-27T01:58:11.819Z,0.00
2018-02-27T01:59:11.838Z,0.00
2018-02-27T02:00:11.831Z,0.00
2018-02-27T02:01:11.839Z,0.00
2018-02-27T02:02:11.850Z,0.00
2018-02-27T02:03:11.852Z,0.00
2018-02-27T02:04:11.859Z,0.00
2018-02-27T02:05:11.864Z,0.00
2018-02-27T02:06:11.872Z,0.00
2018-02-27T02:07:11.880Z,0.00
2018-02-27T02:08:11.885Z,0.00
2018-02-27T02:09:11.892Z,0.00
2018-02-27T02:10:11.897Z,0.00
2018-02-27T02:11:11.906Z,0.00
2018-02-27T02:12:11.910Z,0.00
2018-02-27T02:13:11.925Z,0.00
2018-02-27T02:14:11.932Z,0.00
2018-02-27T02:15:11.929Z,0.00
2018-02-27T02:16:11.936Z,0.00
2018-02-27T02:17:11.944Z,0.00
2018-02-27T02:18:11.951Z,0.00
2018-02-27T02:19:11.958Z,0.00
2018-02-27T02:20:11.965Z,0.00
2018-02-27T02:21:11.973Z,0.00
2018-02-27T02:22:11.976Z,0.00
2018-02-27T02:23:11.981Z,0.00
2018-02-27T02:24:11.991Z,0.00
2018-02-27T02:25:11.996Z,0.00
2018-02-27T02:26:12.003Z,0.00
2018-02-27T02:27:12.008Z,0.00
2018-02-27T02:28:12.016Z,0.00
2018-02-27T02:29:12.023Z,0.00
2018-02-27T02:30:12.029Z,0.00
2018-02-27T02:31:12.036Z,0.00
2018-02-27T02:32:12.049Z,0.00
2018-02-27T02:33:12.052Z,0.00
2018-02-27T02:34:12.073Z,0.00
2018-02-27T02:35:12.062Z,0.00
2018-02-27T02:36:12.069Z,0.00
2018-02-27T02:37:12.078Z,0.00
2018-02-27T02:38:12.082Z,0.00
2018-02-27T02:39:12.087Z,0.00
2018-02-27T02:40:12.097Z,0.00
2018-02-27T02:41:12.101Z,0.00
2018-02-27T02:42:12.107Z,0.00
2018-02-27T02:43:12.113Z,0.00
2018-02-27T02:44:12.120Z,0.00
2018-02-27T02:45:12.127Z,0.00
2018-02-27T02:46:12.135Z,0.00
2018-02-27T02:47:12.142Z,0.00
2018-02-27T02:48:12.145Z,0.00
2018-02-27T02:49:12.153Z,0.00
2018-02-27T02:50:12.174Z,0.00
2018-02-27T02:51:12.164Z,0.00
2018-02-27T02:52:12.175Z,0.00
2018-02-27T02:53:12.179Z,0.00
2018-02-27T02:54:12.185Z,0.00
2018-02-27T02:55:12.188Z,0.00
2018-02-27T02:56:12.201Z,0.00
2018-02-27T02:57:12.205Z,0.00
2018-02-27T02:58:12.210Z,0.00
2018-02-27T02:59:12.215Z,0.00
2018-02-27T03:00:12.223Z,0.00
2018-02-27T03:01:12.229Z,0.00
2018-02-27T03:02:12.236Z,0.00
2018-02-27T03:03:12.247Z,0.00
2018-02-27T03:04:12.253Z,0.00
2018-02-27T03:05:12.256Z,0.00
2018-02-27T03:06:12.261Z,0.00
2018-02-27T03:07:12.267Z,0.00
2018-02-27T03:08:12.276Z,0.00
2018-02-27T03:09:12.282Z,0.00
2018-02-27T03:10:12.287Z,0.00
2018-02-27T03:11:12.294Z,0.00
2018-02-27T03:12:12.302Z,0.00
2018-02-27T03:13:12.307Z,0.00
2018-02-27T03:14:12.314Z,0.00
2018-02-27T03:15:12.319Z,0.00
2018-02-27T03:16:12.326Z,0.00
2018-02-27T03:17:12.334Z,0.00
2018-02-27T03:18:12.339Z,0.00
2018-02-27T03:19:12.346Z,0.00
2018-02-27T03:20:12.350Z,0.00
2018-02-27T03:21:12.358Z,0.00
2018-02-27T03:22:12.363Z,0.00
2018-02-27T03:23:12.375Z,0.00
2018-02-27T03:24:12.380Z,0.00
2018-02-27T03:25:12.385Z,0.00
2018-02-27T03:26:12.390Z,0.00
2018-02-27T03:27:12.396Z,0.00
2018-02-27T03:28:12.403Z,0.00
2018-02-27T03:29:12.408Z,0.00
2018-02-27T03:30:12.421Z,0.00
2018-02-27T03:31:12.422Z,0.00
2018-02-27T03:32:12.428Z,0.00
2018-02-27T03:33:12.435Z,0.00
2018-02-27T03:34:12.442Z,0.00
2018-02-27T03:35:12.453Z,0.00
2018-02-27T03:36:12.453Z,0.00
2018-02-27T03:37:12.458Z,0.00
2018-02-27T03:38:12.466Z,0.00
2018-02-27T03:39:12.472Z,0.00
2018-02-27T03:40:12.482Z,0.00
2018-02-27T03:41:12.487Z,0.00
2018-02-27T03:42:12.490Z,0.00
2018-02-27T03:43:12.496Z,0.00
2018-02-27T03:44:12.501Z,0.00
2018-02-27T03:45:12.512Z,0.00
2018-02-27T03:46:12.520Z,0.00
2018-02-27T03:47:12.525Z,0.00
2018-02-27T03:48:12.531Z,0.00
2018-02-27T03:49:12.535Z,0.00
2018-02-27T03:50:12.540Z,0.00
2018-02-27T03:51:12.544Z,0.00
2018-02-27T03:52:12.556Z,0.00
2018-02-27T03:53:12.559Z,0.00
2018-02-27T03:54:12.564Z,0.00
2018-02-27T03:55:12.572Z,0.00
2018-02-27T03:56:12.576Z,0.00
2018-02-27T03:57:12.582Z,0.00
2018-02-27T03:58:12.587Z,0.00
2018-02-27T03:59:12.602Z,0.00
2018-02-27T04:00:12.601Z,0.00
2018-02-27T04:01:12.609Z,0.00
2018-02-27T04:02:12.617Z,0.00
2018-02-27T04:03:12.622Z,0.00
2018-02-27T04:04:12.629Z,0.00
2018-02-27T04:05:12.687Z,0.00
2018-02-27T04:06:12.638Z,0.00
2018-02-27T04:07:12.647Z,0.00
2018-02-27T04:08:12.658Z,0.00
2018-02-27T04:09:12.663Z,0.00
2018-02-27T04:10:12.662Z,0.00
2018-02-27T04:11:12.670Z,0.00
2018-02-27T04:12:12.676Z,0.00
2018-02-27T04:13:12.682Z,0.00
2018-02-27T04:14:12.687Z,0.00
2018-02-27T04:15:12.696Z,0.00
2018-02-27T04:16:12.701Z,0.00
2018-02-27T04:17:12.707Z,0.00
2018-02-27T04:18:12.712Z,0.00
2018-02-27T04:19:12.718Z,0.00
2018-02-27T04:20:12.726Z,0.00
2018-02-27T04:21:12.732Z,0.00
2018-02-27T04:22:12.737Z,0.00
2018-02-27T04:23:12.748Z,0.00
2018-02-27T04:24:12.749Z,0.00
2018-02-27T04:25:12.755Z,0.00
2018-02-27T04:26:12.761Z,0.00
2018-02-27T04:27:12.767Z,0.00
2018-02-27T04:28:12.773Z,0.00
2018-02-27T04:29:12.779Z,0.00
2018-02-27T04:30:12.784Z,0.00
2018-02-27T04:31:12.797Z,0.00
2018-02-27T04:32:12.798Z,0.00
2018-02-27T04:33:12.804Z,0.00
2018-02-27T04:34:12.812Z,0.00
2018-02-27T04:35:12.816Z,0.00
2018-02-27T04:36:12.823Z,0.00
2018-02-27T04:37:12.838Z,0.00
2018-02-27T04:38:12.834Z,0.00
2018-02-27T04:39:12.842Z,0.00
2018-02-27T04:40:12.848Z,0.00
2018-02-27T04:41:12.854Z,0.00
2018-02-27T04:42:12.860Z,0.00
2018-02-27T04:43:12.864Z,0.00
2018-02-27T04:44:12.871Z,0.00
2018-02-27T04:45:12.883Z,0.00
2018-02-27T04:46:12.883Z,0.00
2018-02-27T04:47:12.888Z,0.00
2018-02-27T04:48:12.895Z,0.00
2018-02-27T04:49:12.903Z,0.00
2018-02-27T04:50:12.907Z,0.00
2018-02-27T04:51:12.914Z,0.00
2018-02-27T04:52:12.918Z,0.00
2018-02-27T04:53:12.927Z,0.00
2018-02-27T04:54:12.933Z,0.00
2018-02-27T04:55:12.939Z,0.00
2018-02-27T04:56:12.943Z,0.00
2018-02-27T04:57:12.954Z,0.00
2018-02-27T04:58:12.957Z,0.00
2018-02-27T04:59:12.964Z,0.00
2018-02-27T05:00:12.971Z,0.00
2018-02-27T05:01:12.975Z,0.00
2018-02-27T05:02:12.981Z,0.00
2018-02-27T05:03:12.986Z,0.00
2018-02-27T05:04:12.994Z,0.00
2018-02-27T05:05:13.000Z,0.00
2018-02-27T05:06:13.006Z,0.00
2018-02-27T05:07:13.014Z,0.00
2018-02-27T05:08:13.016Z,0.00
2018-02-27T05:09:13.024Z,0.00
2018-02-27T05:10:13.028Z,0.00
2018-02-27T05:11:13.035Z,0.00
2018-02-27T05:12:13.041Z,0.00
2018-02-27T05:13:13.048Z,0.00
2018-02-27T05:14:13.055Z,0.00
2018-02-27T05:15:13.061Z,0.00
2018-02-27T05:16:13.066Z,0.00
2018-02-27T05:17:13.072Z,0.00
2018-02-27T05:18:13.104Z,0.00
2018-02-27T05:19:13.140Z,0.00
2018-02-27T05:20:13.090Z,0.00
2018-02-27T05:21:13.095Z,0.00
2018-02-27T05:22:13.102Z,0.00
2018-02-27T05:23:13.109Z,0.00
2018-02-27T05:24:13.118Z,0.00
2018-02-27T05:25:13.121Z,0.00
2018-02-27T05:26:13.128Z,0.00
2018-02-27T05:27:13.133Z,0.00
2018-02-27T05:28:13.143Z,0.00
2018-02-27T05:29:13.146Z,0.00
2018-02-27T05:30:13.152Z,0.00
2018-02-27T05:31:13.158Z,0.00
2018-02-27T05:32:13.163Z,0.00
2018-02-27T05:33:13.170Z,0.00
2018-02-27T05:34:13.176Z,0.00
2018-02-27T05:35:13.182Z,0.00
2018-02-27T05:36:13.187Z,0.00
2018-02-27T05:37:13.194Z,4.00
2018-02-27T05:38:13.201Z,4.00
2018-02-27T05:39:13.208Z,4.00
2018-02-27T05:40:13.212Z,4.00
2018-02-27T05:41:13.219Z,4.00
2018-02-27T05:42:13.223Z,4.00
2018-02-27T05:43:13.230Z,4.00
2018-02-27T05:44:13.240Z,4.00
2018-02-27T05:45:13.243Z,4.00
2018-02-27T05:46:13.250Z,4.00
2018-02-27T05:47:13.254Z,4.00
2018-02-27T05:48:13.265Z,4.00
2018-02-27T05:49:13.270Z,4.00
2018-02-27T05:50:13.269Z,0.00
2018-02-27T05:51:13.276Z,0.00
2018-02-27T05:52:13.284Z,4.00
2018-02-27T05:53:13.288Z,4.00
2018-02-27T05:54:13.295Z,4.00
2018-02-27T05:55:13.302Z,4.00
2018-02-27T05:56:13.307Z,4.00
2018-02-27T05:57:13.314Z,8.00
2018-02-27T05:58:13.320Z,4.00
2018-02-27T05:59:13.328Z,8.00
2018-02-27T06:00:13.332Z,8.00
2018-02-27T06:01:13.344Z,8.00
2018-02-27T06:02:13.345Z,8.00
2018-02-27T06:03:13.359Z,8.00
2018-02-27T06:04:13.357Z,12.00
2018-02-27T06:05:13.364Z,12.00
2018-02-27T06:06:13.368Z,16.00
2018-02-27T06:07:13.378Z,20.00
2018-02-27T06:08:13.379Z,20.00
2018-02-27T06:09:13.389Z,20.00
2018-02-27T06:10:13.392Z,24.00
2018-02-27T06:11:13.407Z,28.00
2018-02-27T06:12:13.405Z,32.00
2018-02-27T06:13:13.408Z,36.00
2018-02-27T06:14:13.421Z,40.00
2018-02-27T06:15:13.424Z,44.00
2018-02-27T06:16:13.430Z,56.00
2018-02-27T06:17:13.433Z,60.00
2018-02-27T06:18:13.445Z,68.00
2018-02-27T06:19:13.449Z,80.00
2018-02-27T06:20:13.455Z,88.00
2018-02-27T06:21:13.462Z,96.00
2018-02-27T06:22:13.464Z,104.00
2018-02-27T06:23:13.472Z,116.00
2018-02-27T06:24:13.478Z,124.00
2018-02-27T06:25:13.485Z,132.00
2018-02-27T06:26:13.489Z,140.00
2018-02-27T06:27:13.511Z,144.00
2018-02-27T06:28:13.503Z,160.00
2018-02-27T06:29:13.507Z,168.00
2018-02-27T06:30:13.513Z,180.00
2018-02-27T06:31:13.525Z,192.00
2018-02-27T06:32:13.523Z,200.00
2018-02-27T06:33:13.536Z,212.00
2018-02-27T06:34:13.541Z,224.00
2018-02-27T06:35:13.547Z,236.00
2018-02-27T06:36:13.560Z,244.00
2018-02-27T06:37:13.555Z,252.00
2018-02-27T06:38:13.566Z,256.00
2018-02-27T06:39:13.567Z,264.00
2018-02-27T06:40:13.583Z,284.00
2018-02-27T06:41:13.581Z,308.00
2018-02-27T06:42:13.599Z,324.00
2018-02-27T06:43:13.597Z,344.00
2018-02-27T06:44:13.596Z,356.00
2018-02-27T06:45:13.605Z,384.00
2018-02-27T06:46:13.612Z,412.00
2018-02-27T06:47:13.657Z,436.00
2018-02-27T06:48:13.622Z,456.00
2018-02-27T06:49:13.631Z,468.00
2018-02-27T06:50:13.634Z,476.00
2018-02-27T06:51:13.642Z,492.00
2018-02-27T06:52:13.648Z,504.00
2018-02-27T06:53:13.654Z,516.00
2018-02-27T06:54:13.660Z,532.00
2018-02-27T06:55:13.724Z,556.00
2018-02-27T06:56:13.672Z,576.00
2018-02-27T06:57:13.679Z,592.00
2018-02-27T06:58:13.688Z,608.00
2018-02-27T06:59:13.692Z,624.00
2018-02-27T07:00:13.699Z,648.00
2018-02-27T07:01:13.707Z,668.00
2018-02-27T07:02:13.711Z,704.00
2018-02-27T07:03:13.718Z,736.00
2018-02-27T07:04:13.723Z,772.00
2018-02-27T07:05:13.828Z,808.00
2018-02-27T07:06:13.733Z,840.00
2018-02-27T07:07:13.752Z,872.00
2018-02-27T07:08:13.747Z,904.00
2018-02-27T07:09:13.746Z,932.00
2018-02-27T07:10:13.758Z,952.00
2018-02-27T07:11:13.760Z,968.00
2018-02-27T07:12:13.764Z,984.00
2018-02-27T07:13:13.782Z,984.00
2018-02-27T07:14:13.774Z,984.00
2018-02-27T07:15:13.786Z,972.00
2018-02-27T07:16:13.789Z,976.00
2018-02-27T07:17:13.795Z,976.00
2018-02-27T07:18:13.799Z,972.00
2018-02-27T07:19:13.806Z,964.00
2018-02-27T07:20:13.818Z,952.00
2018-02-27T07:21:13.820Z,960.00
2018-02-27T07:22:14.059Z,988.00
2018-02-27T07:23:13.830Z,1016.00
2018-02-27T07:24:13.837Z,1020.00
2018-02-27T07:25:13.848Z,1020.00
2018-02-27T07:26:13.847Z,1040.00
2018-02-27T07:27:13.857Z,1044.00
2018-02-27T07:28:13.861Z,1084.00
2018-02-27T07:29:13.868Z,1144.00
2018-02-27T07:30:13.910Z,1172.00
2018-02-27T07:31:13.882Z,1148.00
2018-02-27T07:32:13.888Z,1100.00
2018-02-27T07:33:13.895Z,1044.00
2018-02-27T07:34:13.900Z,996.00
2018-02-27T07:35:14.655Z,1000.00
2018-02-27T07:36:13.912Z,1036.00
2018-02-27T07:37:13.918Z,1096.00
2018-02-27T07:38:13.924Z,1152.00
2018-02-27T07:39:13.933Z,1188.00
2018-02-27T07:40:13.936Z,1208.00
2018-02-27T07:41:13.946Z,1224.00
2018-02-27T07:42:13.954Z,1240.00
2018-02-27T07:43:13.954Z,1264.00
2018-02-27T07:44:13.961Z,1300.00
2018-02-27T07:45:13.967Z,1360.00
2018-02-27T07:46:13.981Z,1424.00
2018-02-27T07:47:14.031Z,1480.00
2018-02-27T07:48:13.989Z,1520.00
2018-02-27T07:49:14.001Z,1564.00
2018-02-27T07:50:14.000Z,1612.00
2018-02-27T07:51:14.008Z,2064.00
2018-02-27T07:52:14.014Z,2096.00
2018-02-27T07:53:14.020Z,2024.00
2018-02-27T07:54:14.026Z,2212.00
2018-02-27T07:55:14.032Z,2268.00
2018-02-27T07:56:14.041Z,2356.00
2018-02-27T07:57:14.065Z,2456.00
2018-02-27T07:58:14.051Z,2556.00
2018-02-27T07:59:14.058Z,2460.00
2018-02-27T08:00:14.065Z,2512.00
2018-02-27T08:01:14.077Z,2032.00
2018-02-27T08:02:14.079Z,1960.00
2018-02-27T08:03:14.084Z,1876.00
2018-02-27T08:04:14.142Z,1864.00
2018-02-27T08:05:14.099Z,1832.00
2018-02-27T08:06:14.108Z,1792.00
2018-02-27T08:07:14.112Z,1792.00
2018-02-27T08:09:14.135Z,1940.00
2018-02-27T08:10:14.141Z,1948.00
2018-02-27T08:11:14.154Z,1952.00
2018-02-27T08:12:14.156Z,1996.00
2018-02-27T08:13:14.166Z,1924.00
2018-02-27T08:14:14.311Z,1792.00
2018-02-27T08:15:14.166Z,1684.00
2018-02-27T08:16:14.191Z,1592.00
2018-02-27T08:17:14.181Z,1520.00
2018-02-27T08:18:14.186Z,1464.00
2018-02-27T08:19:14.195Z,1448.00
2018-02-27T08:20:14.200Z,1624.00
2018-02-27T08:21:14.209Z,1628.00
2018-02-27T08:22:14.217Z,2316.00
2018-02-27T08:23:14.222Z,2608.00
2018-02-27T08:24:14.227Z,2604.00
2018-02-27T08:25:14.244Z,2644.00
2018-02-27T08:26:14.244Z,2640.00
2018-02-27T08:27:14.246Z,2632.00
2018-02-27T08:28:14.253Z,2656.00
2018-02-27T08:29:14.262Z,2664.00
2018-02-27T08:30:14.269Z,2656.00
2018-02-27T08:31:14.275Z,2580.00
2018-02-27T08:32:14.281Z,2640.00
2018-02-27T08:33:14.290Z,2684.00
2018-02-27T08:34:14.298Z,2668.00
2018-02-27T08:35:14.300Z,2664.00
2018-02-27T08:36:14.307Z,2712.00
2018-02-27T08:37:14.319Z,2760.00
2018-02-27T08:38:14.323Z,2756.00
2018-02-27T08:39:14.327Z,2332.00
2018-02-27T08:40:14.390Z,2572.00
2018-02-27T08:41:14.663Z,2804.00
2018-02-27T08:42:14.352Z,2832.00
2018-02-27T08:43:14.569Z,2564.00
2018-02-27T08:44:14.408Z,2964.00
2018-02-27T08:45:14.369Z,3016.00
2018-02-27T08:46:14.388Z,3024.00
2018-02-27T08:47:14.383Z,3020.00
2018-02-27T08:48:14.398Z,2972.00
2018-02-27T08:49:14.396Z,2932.00
2018-02-27T08:50:14.402Z,2932.00
2018-02-27T08:51:14.409Z,2912.00
2018-02-27T08:52:14.417Z,2924.00
2018-02-27T08:53:14.521Z,2944.00
2018-02-27T08:54:14.431Z,2944.00
2018-02-27T08:55:14.434Z,2944.00
2018-02-27T08:56:14.450Z,2952.00
2018-02-27T08:57:14.450Z,2920.00
2018-02-27T08:58:14.455Z,2960.00
2018-02-27T08:59:14.462Z,2964.00
2018-02-27T09:00:14.475Z,2960.00
2018-02-27T09:01:14.480Z,2932.00
2018-02-27T09:02:14.488Z,2916.00
2018-02-27T09:03:14.490Z,2952.00
2018-02-27T09:04:14.511Z,2972.00
2018-02-27T09:05:14.503Z,2988.00
2018-02-27T09:06:14.510Z,2976.00
2018-02-27T09:07:14.625Z,2688.00
2018-02-27T09:08:14.527Z,3020.00
2018-02-27T09:09:14.711Z,3028.00
2018-02-27T09:10:14.553Z,3008.00
2018-02-27T09:11:14.545Z,3028.00
2018-02-27T09:12:14.553Z,3080.00
2018-02-27T09:13:14.557Z,3096.00
2018-02-27T09:14:14.566Z,3184.00
2018-02-27T09:15:14.574Z,3204.00
2018-02-27T09:16:14.578Z,3260.00
2018-02-27T09:17:14.591Z,3352.00
2018-02-27T09:18:14.591Z,3436.00
2018-02-27T09:19:14.649Z,3612.00
2018-02-27T09:20:14.644Z,3508.00
2018-02-27T09:21:14.615Z,3928.00
2018-02-27T09:22:14.625Z,3284.00
2018-02-27T09:23:14.625Z,2364.00
2018-02-27T09:24:14.638Z,2172.00
2018-02-27T09:25:14.644Z,2092.00
2018-02-27T09:26:14.654Z,3284.00
2018-02-27T09:27:14.655Z,3664.00
2018-02-27T09:28:14.668Z,3356.00
2018-02-27T09:29:14.696Z,2188.00
2018-02-27T09:30:14.676Z,3676.00
2018-02-27T09:31:14.688Z,2380.00
2018-02-27T09:32:17.166Z,2544.00
2018-02-27T09:33:14.697Z,2924.00
2018-02-27T09:34:14.718Z,3148.00
2018-02-27T09:35:14.713Z,4528.00
2018-02-27T09:36:14.718Z,3520.00
2018-02-27T09:37:14.726Z,3020.00
2018-02-27T09:38:14.800Z,3124.00
2018-02-27T09:39:14.744Z,3104.00
2018-02-27T09:40:14.752Z,2956.00
2018-02-27T09:41:14.755Z,2960.00
2018-02-27T09:42:14.760Z,3508.00
2018-02-27T09:43:14.772Z,3392.00
2018-02-27T09:44:14.777Z,3332.00
2018-02-27T09:45:14.785Z,3520.00
2018-02-27T09:46:14.795Z,3392.00
2018-02-27T09:47:14.798Z,3296.00
2018-02-27T09:48:14.807Z,3336.00
2018-02-27T09:49:14.813Z,3596.00
2018-02-27T09:50:14.827Z,3728.00
2018-02-27T09:51:14.825Z,3848.00
2018-02-27T09:52:14.831Z,3724.00
2018-02-27T09:53:14.843Z,3864.00
2018-02-27T09:54:14.844Z,4544.00
2018-02-27T09:55:14.850Z,4248.00
2018-02-27T09:56:14.869Z,4508.00
2018-02-27T09:57:14.874Z,5540.00
2018-02-27T09:58:14.873Z,4016.00
2018-02-27T09:59:14.883Z,3988.00
2018-02-27T10:00:14.891Z,4080.00
2018-02-27T10:01:14.898Z,4108.00
2018-02-27T10:02:14.906Z,4136.00
2018-02-27T10:03:14.913Z,4444.00
2018-02-27T10:04:14.922Z,3808.00
2018-02-27T10:05:14.930Z,3880.00
2018-02-27T10:06:15.523Z,3872.00
2018-02-27T10:07:14.949Z,3912.00
2018-02-27T10:08:14.952Z,4048.00
2018-02-27T10:09:14.975Z,4100.00
2018-02-27T10:10:14.979Z,4220.00
2018-02-27T10:11:14.975Z,4628.00
2018-02-27T10:12:14.984Z,5256.00
2018-02-27T10:13:15.098Z,5612.00
2018-02-27T10:14:15.003Z,4764.00
2018-02-27T10:15:15.188Z,4836.00
2018-02-27T10:16:15.025Z,4880.00
2018-02-27T10:17:15.027Z,4520.00
2018-02-27T10:18:15.032Z,5440.00
2018-02-27T10:19:15.041Z,5892.00
2018-02-27T10:20:15.050Z,4432.00
2018-02-27T10:21:15.056Z,4396.00
2018-02-27T10:22:15.906Z,4712.00
2018-02-27T10:23:15.092Z,4640.00
2018-02-27T10:24:15.079Z,5664.00
2018-02-27T10:25:15.091Z,4140.00
2018-02-27T10:26:15.097Z,4436.00
2018-02-27T10:27:15.103Z,4568.00
2018-02-27T10:28:15.411Z,4472.00
2018-02-27T10:29:15.133Z,4288.00
2018-02-27T10:30:15.129Z,4560.00
2018-02-27T10:31:15.139Z,4424.00
2018-02-27T10:32:15.165Z,4136.00
2018-02-27T10:33:15.154Z,4116.00
2018-02-27T10:34:15.163Z,3992.00
2018-02-27T10:35:15.171Z,3956.00
2018-02-27T10:36:15.180Z,3956.00
2018-02-27T10:37:15.198Z,4328.00
2018-02-27T10:38:15.207Z,3664.00
2018-02-27T10:39:15.204Z,3676.00
2018-02-27T10:40:15.215Z,3884.00
2018-02-27T10:41:15.225Z,4600.00
2018-02-27T10:42:15.232Z,5388.00
2018-02-27T10:43:16.560Z,4084.00
2018-02-27T10:44:15.250Z,3912.00
2018-02-27T10:45:15.257Z,3976.00
2018-02-27T10:46:15.263Z,4176.00
2018-02-27T10:47:15.274Z,4296.00
2018-02-27T10:48:15.282Z,4360.00
2018-02-27T10:49:15.287Z,5668.00
2018-02-27T10:50:15.298Z,4052.00
2018-02-27T10:51:15.306Z,4232.00
2018-02-27T10:52:15.311Z,4172.00
2018-02-27T10:53:15.337Z,4284.00
2018-02-27T10:54:15.327Z,4356.00
2018-02-27T10:55:15.350Z,4448.00
2018-02-27T10:56:15.352Z,4228.00
2018-02-27T10:57:15.390Z,3880.00
2018-02-27T10:58:15.363Z,3500.00
2018-02-27T10:59:15.372Z,3992.00
2018-02-27T11:00:15.380Z,3736.00
2018-02-27T11:01:15.390Z,4072.00
2018-02-27T11:02:15.398Z,4516.00
2018-02-27T11:03:15.409Z,5080.00
2018-02-27T11:04:15.414Z,4044.00
2018-02-27T11:05:15.423Z,4208.00
2018-02-27T11:06:15.436Z,4016.00
2018-02-27T11:07:15.453Z,4096.00
2018-02-27T11:08:15.455Z,4636.00
2018-02-27T11:09:15.458Z,4792.00
2018-02-27T11:10:15.466Z,4284.00
2018-02-27T11:11:15.474Z,3564.00
2018-02-27T11:12:15.492Z,3156.00
2018-02-27T11:13:15.493Z,2868.00
2018-02-27T11:14:15.499Z,2560.00
2018-02-27T11:15:15.507Z,2308.00
2018-02-27T11:16:15.537Z,2188.00
2018-02-27T11:17:15.529Z,2288.00
2018-02-27T11:18:15.534Z,2508.00
2018-02-27T11:19:15.560Z,2752.00
2018-02-27T11:20:15.658Z,2944.00
2018-02-27T11:21:15.561Z,2908.00
2018-02-27T11:22:15.570Z,2812.00
2018-02-27T11:23:15.582Z,2456.00
2018-02-27T11:24:15.591Z,2292.00
2018-02-27T11:25:15.693Z,2496.00
2018-02-27T11:26:15.612Z,2856.00
2018-02-27T11:27:15.613Z,3236.00
2018-02-27T11:28:15.646Z,3464.00
2018-02-27T11:29:15.630Z,3380.00
2018-02-27T11:30:18.040Z,3396.00
2018-02-27T11:31:16.792Z,3532.00
2018-02-27T11:32:15.667Z,3672.00
2018-02-27T11:33:15.665Z,3736.00
2018-02-27T11:34:15.676Z,3752.00
2018-02-27T11:35:15.684Z,3476.00
2018-02-27T11:36:15.694Z,3332.00
2018-02-27T11:37:15.699Z,3216.00
2018-02-27T11:38:15.708Z,3000.00
2018-02-27T11:39:15.716Z,2756.00
2018-02-27T11:40:15.724Z,2676.00
2018-02-27T11:41:15.733Z,2892.00
2018-02-27T11:42:16.953Z,3156.00
2018-02-27T11:43:15.747Z,3164.00
2018-02-27T11:44:15.760Z,3116.00
2018-02-27T11:45:15.766Z,3160.00
2018-02-27T11:46:15.783Z,3628.00
2018-02-27T11:47:15.793Z,4756.00
2018-02-27T11:48:15.797Z,4600.00
2018-02-27T11:49:15.803Z,5060.00
2018-02-27T11:50:15.808Z,4212.00
2018-02-27T11:51:15.820Z,4052.00
2018-02-27T11:52:15.827Z,3836.00
2018-02-27T11:53:15.840Z,3652.00
2018-02-27T11:54:15.845Z,3700.00
2018-02-27T11:55:15.855Z,3760.00
2018-02-27T11:56:15.856Z,3716.00
2018-02-27T11:57:15.866Z,3640.00
2018-02-27T11:58:15.873Z,3772.00
2018-02-27T11:59:15.883Z,3920.00
2018-02-27T12:00:15.891Z,4884.00
2018-02-27T12:03:15.916Z,3384.00
2018-02-27T12:04:15.931Z,3268.00
2018-02-27T12:05:15.933Z,3288.00
2018-02-27T12:06:15.948Z,3580.00
2018-02-27T12:07:15.951Z,3824.00
2018-02-27T12:08:16.030Z,5080.00
2018-02-27T12:09:15.971Z,5652.00
2018-02-27T12:10:15.975Z,4532.00
2018-02-27T12:11:15.985Z,4052.00
2018-02-27T12:12:15.996Z,3592.00
2018-02-27T12:13:16.002Z,3584.00
2018-02-27T12:14:16.010Z,3612.00
2018-02-27T12:15:16.020Z,3404.00
2018-02-27T12:16:16.053Z,4200.00
2018-02-27T12:17:16.042Z,4496.00
2018-02-27T12:18:16.045Z,4636.00
2018-02-27T12:19:16.052Z,4540.00
2018-02-27T12:20:16.063Z,4404.00
2018-02-27T12:21:16.071Z,4428.00
2018-02-27T12:22:16.080Z,4240.00
2018-02-27T12:23:16.087Z,4864.00
2018-02-27T12:24:16.108Z,5140.00
2018-02-27T12:25:16.104Z,5252.00
2018-02-27T12:26:16.113Z,5616.00
2018-02-27T12:27:16.124Z,5920.00
2018-02-27T12:28:16.130Z,5792.00
2018-02-27T12:29:16.181Z,5396.00
2018-02-27T12:30:16.281Z,5324.00
2018-02-27T12:31:16.155Z,4996.00
2018-02-27T12:32:16.185Z,5668.00
2018-02-27T12:33:16.178Z,6008.00
2018-02-27T12:34:16.197Z,5624.00
2018-02-27T12:35:16.189Z,5352.00
2018-02-27T12:36:16.217Z,5352.00
2018-02-27T12:37:16.208Z,5656.00
2018-02-27T12:38:16.216Z,5488.00
2018-02-27T12:39:16.229Z,5004.00
2018-02-27T12:40:16.236Z,5380.00
2018-02-27T12:41:16.245Z,4804.00
2018-02-27T12:42:16.254Z,4368.00
2018-02-27T12:43:16.266Z,5240.00
2018-02-27T12:44:16.271Z,5128.00